Terminal Aerodrome Forecast
Issued by NWS Upton, NY

Home | Current Version | Previous Version | Text Only | Print | Product List | Glossary On
Versions: 1 2 3 4 5 6 7 8 9 10 11 12 13 14 15 16 17 18 19 20 21 22 23 24 25 26 27 28 29 30 31 32 33 34 35
605
FTUS41 KOKX 302133 AAB
TAFJFK
TAF AMD
KJFK 302133Z 3022/0124 05015G24KT 3SM -SHRA BR FEW010 OVC012
      TEMPO 3022/3024 BKN008
     FM010000 04014G24KT P6SM VCSH OVC008
     FM011300 04011KT 6SM -SHRA OVC012
     FM011800 05010KT 4SM -SHRA BR OVC015=

USA.gov is the U.S. government's official web portal to all federal, state and local government web resources and services.